sensor_id;sensor_type;location;lat;lon;timestamp;temperature;humidity
22607;DHT22;11470;20.968;105.834;2023-04-03T00:01:58;23.70;99.90
22607;DHT22;11470;20.968;105.834;2023-04-03T00:07:03;23.70;99.90
22607;DHT22;11470;20.968;105.834;2023-04-03T00:12:09;23.70;99.90
22607;DHT22;11470;20.968;105.834;2023-04-03T00:17:15;23.70;99.90
22607;DHT22;11470;20.968;105.834;2023-04-03T00:22:21;23.60;99.90
22607;DHT22;11470;20.968;105.834;2023-04-03T00:27:27;23.60;99.90
22607;DHT22;11470;20.968;105.834;2023-04-03T00:32:33;23.60;99.90
22607;DHT22;11470;20.968;105.834;2023-04-03T00:37:39;23.60;99.90
22607;DHT22;11470;20.968;105.834;2023-04-03T00:42:51;23.70;99.90
22607;DHT22;11470;20.968;105.834;2023-04-03T00:47:57;23.70;99.90
22607;DHT22;11470;20.968;105.834;2023-04-03T00:53:07;23.70;99.90
22607;DHT22;11470;20.968;105.834;2023-04-03T00:58:16;23.80;99.90
22607;DHT22;11470;20.968;105.834;2023-04-03T01:03:24;23.80;99.90
22607;DHT22;11470;20.968;105.834;2023-04-03T01:08:30;23.90;99.90
22607;DHT22;11470;20.968;105.834;2023-04-03T01:13:37;23.90;99.90
22607;DHT22;11470;20.968;105.834;2023-04-03T01:18:43;24.00;99.90
22607;DHT22;11470;20.968;105.834;2023-04-03T01:29:17;24.40;99.90
22607;DHT22;11470;20.968;105.834;2023-04-03T01:34:25;24.50;99.90
22607;DHT22;11470;20.968;105.834;2023-04-03T01:39:32;24.60;99.90
22607;DHT22;11470;20.968;105.834;2023-04-03T01:44:38;24.90;99.90
22607;DHT22;11470;20.968;105.834;2023-04-03T01:49:44;25.00;99.90
22607;DHT22;11470;20.968;105.834;2023-04-03T01:54:49;25.40;99.90
22607;DHT22;11470;20.968;105.834;2023-04-03T01:59:56;26.20;99.90
22607;DHT22;11470;20.968;105.834;2023-04-03T02:05:01;26.70;99.90
22607;DHT22;11470;20.968;105.834;2023-04-03T02:10:08;26.70;99.90
22607;DHT22;11470;20.968;105.834;2023-04-03T02:15:14;26.60;99.90
22607;DHT22;11470;20.968;105.834;2023-04-03T02:20:20;26.70;99.90
22607;DHT22;11470;20.968;105.834;2023-04-03T02:25:26;27.10;99.90
22607;DHT22;11470;20.968;105.834;2023-04-03T02:30:32;27.50;99.90
22607;DHT22;11470;20.968;105.834;2023-04-03T02:35:39;27.40;99.90
22607;DHT22;11470;20.968;105.834;2023-04-03T02:40:45;27.20;99.90
22607;DHT22;11470;20.968;105.834;2023-04-03T02:45:50;27.10;99.90
22607;DHT22;11470;20.968;105.834;2023-04-03T02:50:56;27.00;99.90
22607;DHT22;11470;20.968;105.834;2023-04-03T02:56:02;27.30;99.90
22607;DHT22;11470;20.968;105.834;2023-04-03T03:01:08;27.60;99.90
22607;DHT22;11470;20.968;105.834;2023-04-03T03:06:16;28.00;99.90
22607;DHT22;11470;20.968;105.834;2023-04-03T03:11:22;28.40;99.90
22607;DHT22;11470;20.968;105.834;2023-04-03T03:16:28;28.60;99.90
22607;DHT22;11470;20.968;105.834;2023-04-03T03:21:33;29.20;99.90
22607;DHT22;11470;20.968;105.834;2023-04-03T03:26:42;29.90;99.90
22607;DHT22;11470;20.968;105.834;2023-04-03T03:31:48;30.30;99.90
22607;DHT22;11470;20.968;105.834;2023-04-03T03:36:53;31.10;99.90
22607;DHT22;11470;20.968;105.834;2023-04-03T03:41:59;31.90;99.90
22607;DHT22;11470;20.968;105.834;2023-04-03T03:47:05;32.40;99.90
22607;DHT22;11470;20.968;105.834;2023-04-03T03:52:10;32.30;99.90
22607;DHT22;11470;20.968;105.834;2023-04-03T03:57:16;32.30;99.90
22607;DHT22;11470;20.968;105.834;2023-04-03T04:02:22;32.60;99.20
22607;DHT22;11470;20.968;105.834;2023-04-03T04:07:29;32.40;99.60
22607;DHT22;11470;20.968;105.834;2023-04-03T04:12:39;32.30;99.90
22607;DHT22;11470;20.968;105.834;2023-04-03T04:17:45;32.10;99.90
22607;DHT22;11470;20.968;105.834;2023-04-03T04:22:51;32.00;99.90
22607;DHT22;11470;20.968;105.834;2023-04-03T04:27:58;32.00;99.90
22607;DHT22;11470;20.968;105.834;2023-04-03T04:33:04;31.70;99.90
22607;DHT22;11470;20.968;105.834;2023-04-03T04:38:09;31.00;99.90
22607;DHT22;11470;20.968;105.834;2023-04-03T04:43:17;31.00;99.90
22607;DHT22;11470;20.968;105.834;2023-04-03T04:48:26;31.20;99.90
22607;DHT22;11470;20.968;105.834;2023-04-03T04:53:36;32.90;99.90
22607;DHT22;11470;20.968;105.834;2023-04-03T04:58:43;33.80;96.70
22607;DHT22;11470;20.968;105.834;2023-04-03T05:04:09;32.90;97.90
22607;DHT22;11470;20.968;105.834;2023-04-03T05:09:14;31.90;99.90
22607;DHT22;11470;20.968;105.834;2023-04-03T05:14:22;30.80;99.90
22607;DHT22;11470;20.968;105.834;2023-04-03T05:20:23;30.50;99.90
22607;DHT22;11470;20.968;105.834;2023-04-03T05:25:29;31.70;99.90
22607;DHT22;11470;20.968;105.834;2023-04-03T05:30:37;32.00;99.90
22607;DHT22;11470;20.968;105.834;2023-04-03T05:35:43;33.20;98.80
22607;DHT22;11470;20.968;105.834;2023-04-03T05:40:55;34.10;95.80
22607;DHT22;11470;20.968;105.834;2023-04-03T05:46:00;35.00;93.30
22607;DHT22;11470;20.968;105.834;2023-04-03T05:51:09;34.60;92.70
22607;DHT22;11470;20.968;105.834;2023-04-03T05:56:20;34.40;94.20
22607;DHT22;11470;20.968;105.834;2023-04-03T06:01:29;35.60;91.60
22607;DHT22;11470;20.968;105.834;2023-04-03T06:07:16;35.20;91.30
22607;DHT22;11470;20.968;105.834;2023-04-03T06:12:24;34.00;92.60
22607;DHT22;11470;20.968;105.834;2023-04-03T06:17:30;33.10;94.70
22607;DHT22;11470;20.968;105.834;2023-04-03T06:22:49;32.90;96.80
22607;DHT22;11470;20.968;105.834;2023-04-03T06:27:56;32.70;97.60
22607;DHT22;11470;20.968;105.834;2023-04-03T06:33:05;32.50;98.00
22607;DHT22;11470;20.968;105.834;2023-04-03T06:38:14;32.40;98.60
22607;DHT22;11470;20.968;105.834;2023-04-03T06:43:19;32.40;98.60
22607;DHT22;11470;20.968;105.834;2023-04-03T06:48:26;33.00;97.60
22607;DHT22;11470;20.968;105.834;2023-04-03T06:53:32;32.30;98.30
22607;DHT22;11470;20.968;105.834;2023-04-03T06:58:38;31.30;99.90
22607;DHT22;11470;20.968;105.834;2023-04-03T07:03:44;31.30;99.90
22607;DHT22;11470;20.968;105.834;2023-04-03T07:08:50;32.00;99.90
22607;DHT22;11470;20.968;105.834;2023-04-03T07:13:56;32.10;99.90
22607;DHT22;11470;20.968;105.834;2023-04-03T07:19:03;32.30;98.90
22607;DHT22;11470;20.968;105.834;2023-04-03T07:24:08;31.70;99.90
22607;DHT22;11470;20.968;105.834;2023-04-03T07:29:19;31.70;99.90
22607;DHT22;11470;20.968;105.834;2023-04-03T07:34:26;31.80;99.90
22607;DHT22;11470;20.968;105.834;2023-04-03T07:39:32;31.60;99.90
22607;DHT22;11470;20.968;105.834;2023-04-03T07:44:37;31.30;99.90
22607;DHT22;11470;20.968;105.834;2023-04-03T07:49:43;31.60;99.90
22607;DHT22;11470;20.968;105.834;2023-04-03T07:54:48;31.80;99.40
22607;DHT22;11470;20.968;105.834;2023-04-03T07:59:57;31.80;98.80
22607;DHT22;11470;20.968;105.834;2023-04-03T08:05:13;32.30;97.10
22607;DHT22;11470;20.968;105.834;2023-04-03T08:10:19;32.30;96.70
22607;DHT22;11470;20.968;105.834;2023-04-03T08:15:27;32.00;97.80
22607;DHT22;11470;20.968;105.834;2023-04-03T08:20:33;31.40;98.30
22607;DHT22;11470;20.968;105.834;2023-04-03T08:25:41;31.20;99.90
22607;DHT22;11470;20.968;105.834;2023-04-03T08:30:48;31.00;99.40
22607;DHT22;11470;20.968;105.834;2023-04-03T08:35:54;31.00;99.10
22607;DHT22;11470;20.968;105.834;2023-04-03T08:41:36;31.20;99.90
22607;DHT22;11470;20.968;105.834;2023-04-03T08:52:27;30.30;99.90
22607;DHT22;11470;20.968;105.834;2023-04-03T08:57:39;30.30;99.90
22607;DHT22;11470;20.968;105.834;2023-04-03T09:02:50;30.10;99.90
22607;DHT22;11470;20.968;105.834;2023-04-03T09:08:05;29.80;99.90
22607;DHT22;11470;20.968;105.834;2023-04-03T09:18:38;29.70;99.90
22607;DHT22;11470;20.968;105.834;2023-04-03T09:23:51;29.40;99.90
22607;DHT22;11470;20.968;105.834;2023-04-03T09:29:00;29.20;99.90
22607;DHT22;11470;20.968;105.834;2023-04-03T09:34:26;29.00;99.90
22607;DHT22;11470;20.968;105.834;2023-04-03T09:39:48;28.70;99.90
22607;DHT22;11470;20.968;105.834;2023-04-03T09:45:05;28.50;99.90
22607;DHT22;11470;20.968;105.834;2023-04-03T09:50:17;28.30;99.90
22607;DHT22;11470;20.968;105.834;2023-04-03T09:55:26;28.20;99.90
22607;DHT22;11470;20.968;105.834;2023-04-03T10:00:38;28.10;99.90
22607;DHT22;11470;20.968;105.834;2023-04-03T10:05:44;28.10;99.90
22607;DHT22;11470;20.968;105.834;2023-04-03T10:16:19;27.70;99.90
22607;DHT22;11470;20.968;105.834;2023-04-03T10:37:25;27.00;99.90
22607;DHT22;11470;20.968;105.834;2023-04-03T10:43:43;26.80;99.90
22607;DHT22;11470;20.968;105.834;2023-04-03T10:54:15;26.60;99.90
22607;DHT22;11470;20.968;105.834;2023-04-03T10:59:32;26.50;99.90
22607;DHT22;11470;20.968;105.834;2023-04-03T11:04:39;26.40;99.90
22607;DHT22;11470;20.968;105.834;2023-04-03T11:09:49;26.20;99.90
22607;DHT22;11470;20.968;105.834;2023-04-03T11:14:57;26.10;99.90
22607;DHT22;11470;20.968;105.834;2023-04-03T11:25:35;26.10;99.90
22607;DHT22;11470;20.968;105.834;2023-04-03T11:36:25;26.10;99.90
22607;DHT22;11470;20.968;105.834;2023-04-03T11:41:35;26.00;99.90
22607;DHT22;11470;20.968;105.834;2023-04-03T11:51:59;26.00;99.90
22607;DHT22;11470;20.968;105.834;2023-04-03T12:02:53;25.90;99.90
22607;DHT22;11470;20.968;105.834;2023-04-03T12:13:36;25.80;99.90
22607;DHT22;11470;20.968;105.834;2023-04-03T12:30:46;25.70;99.90
22607;DHT22;11470;20.968;105.834;2023-04-03T12:36:36;25.70;99.90
22607;DHT22;11470;20.968;105.834;2023-04-03T12:47:35;25.50;99.90
22607;DHT22;11470;20.968;105.834;2023-04-03T12:58:21;25.40;99.90
22607;DHT22;11470;20.968;105.834;2023-04-03T13:03:30;25.40;99.90
22607;DHT22;11470;20.968;105.834;2023-04-03T13:08:36;25.40;99.90
22607;DHT22;11470;20.968;105.834;2023-04-03T13:13:58;25.40;99.90
22607;DHT22;11470;20.968;105.834;2023-04-03T13:19:03;25.40;99.90
22607;DHT22;11470;20.968;105.834;2023-04-03T13:24:20;25.30;99.90
22607;DHT22;11470;20.968;105.834;2023-04-03T13:29:29;25.30;99.90
22607;DHT22;11470;20.968;105.834;2023-04-03T13:34:42;25.30;99.90
22607;DHT22;11470;20.968;105.834;2023-04-03T13:40:25;25.30;99.90
22607;DHT22;11470;20.968;105.834;2023-04-03T13:45:40;25.30;99.90
22607;DHT22;11470;20.968;105.834;2023-04-03T13:56:37;25.20;99.90
22607;DHT22;11470;20.968;105.834;2023-04-03T14:02:06;25.20;99.90
22607;DHT22;11470;20.968;105.834;2023-04-03T14:07:16;25.20;99.90
22607;DHT22;11470;20.968;105.834;2023-04-03T14:12:35;25.30;99.90
22607;DHT22;11470;20.968;105.834;2023-04-03T14:17:42;25.40;99.90
22607;DHT22;11470;20.968;105.834;2023-04-03T14:22:47;25.40;99.90
22607;DHT22;11470;20.968;105.834;2023-04-03T14:27:53;25.40;99.90
22607;DHT22;11470;20.968;105.834;2023-04-03T14:33:00;25.40;99.90
22607;DHT22;11470;20.968;105.834;2023-04-03T14:38:30;25.40;99.90
22607;DHT22;11470;20.968;105.834;2023-04-03T14:43:36;25.40;99.90
22607;DHT22;11470;20.968;105.834;2023-04-03T14:48:47;25.40;99.90
22607;DHT22;11470;20.968;105.834;2023-04-03T14:53:56;25.40;99.90
22607;DHT22;11470;20.968;105.834;2023-04-03T14:59:04;25.40;99.90
22607;DHT22;11470;20.968;105.834;2023-04-03T15:04:16;25.40;99.90
22607;DHT22;11470;20.968;105.834;2023-04-03T15:09:24;25.40;99.90
22607;DHT22;11470;20.968;105.834;2023-04-03T15:14:30;25.40;99.90
22607;DHT22;11470;20.968;105.834;2023-04-03T15:19:47;25.40;99.90
22607;DHT22;11470;20.968;105.834;2023-04-03T15:24:56;25.40;99.90
22607;DHT22;11470;20.968;105.834;2023-04-03T15:30:08;25.40;99.90
22607;DHT22;11470;20.968;105.834;2023-04-03T15:35:17;25.40;99.90
22607;DHT22;11470;20.968;105.834;2023-04-03T15:40:23;25.30;99.90
22607;DHT22;11470;20.968;105.834;2023-04-03T15:45:30;25.30;99.90
22607;DHT22;11470;20.968;105.834;2023-04-03T15:50:36;25.30;99.90
22607;DHT22;11470;20.968;105.834;2023-04-03T15:55:42;25.30;99.90
22607;DHT22;11470;20.968;105.834;2023-04-03T16:00:51;25.30;99.90
22607;DHT22;11470;20.968;105.834;2023-04-03T16:06:18;25.30;99.90
22607;DHT22;11470;20.968;105.834;2023-04-03T16:11:25;25.30;99.90
22607;DHT22;11470;20.968;105.834;2023-04-03T16:16:30;25.30;99.90
22607;DHT22;11470;20.968;105.834;2023-04-03T16:21:36;25.20;99.90
22607;DHT22;11470;20.968;105.834;2023-04-03T16:26:41;25.20;99.90
22607;DHT22;11470;20.968;105.834;2023-04-03T16:31:50;25.20;99.90
22607;DHT22;11470;20.968;105.834;2023-04-03T16:36:56;25.20;99.90
22607;DHT22;11470;20.968;105.834;2023-04-03T16:42:05;25.20;99.90
22607;DHT22;11470;20.968;105.834;2023-04-03T16:47:23;25.10;99.90
22607;DHT22;11470;20.968;105.834;2023-04-03T16:52:29;25.00;99.90
22607;DHT22;11470;20.968;105.834;2023-04-03T16:57:34;24.90;99.90
22607;DHT22;11470;20.968;105.834;2023-04-03T17:02:40;24.80;99.90
22607;DHT22;11470;20.968;105.834;2023-04-03T17:07:46;24.70;99.90
22607;DHT22;11470;20.968;105.834;2023-04-03T17:12:52;24.70;99.90
22607;DHT22;11470;20.968;105.834;2023-04-03T17:17:58;24.70;99.90
22607;DHT22;11470;20.968;105.834;2023-04-03T17:23:08;24.60;99.90
22607;DHT22;11470;20.968;105.834;2023-04-03T17:28:13;24.60;99.90
22607;DHT22;11470;20.968;105.834;2023-04-03T17:33:19;24.70;99.90
22607;DHT22;11470;20.968;105.834;2023-04-03T17:38:25;24.70;99.90
22607;DHT22;11470;20.968;105.834;2023-04-03T17:43:31;24.80;99.90
22607;DHT22;11470;20.968;105.834;2023-04-03T17:48:38;24.90;99.90
22607;DHT22;11470;20.968;105.834;2023-04-03T17:53:45;24.90;99.90
22607;DHT22;11470;20.968;105.834;2023-04-03T17:58:51;24.90;99.90
22607;DHT22;11470;20.968;105.834;2023-04-03T18:04:00;24.90;99.90
22607;DHT22;11470;20.968;105.834;2023-04-03T18:09:17;24.90;99.90
22607;DHT22;11470;20.968;105.834;2023-04-03T18:14:25;24.90;99.90
22607;DHT22;11470;20.968;105.834;2023-04-03T18:19:31;24.90;99.90
22607;DHT22;11470;20.968;105.834;2023-04-03T18:24:37;24.90;99.90
22607;DHT22;11470;20.968;105.834;2023-04-03T18:29:42;24.90;99.90
22607;DHT22;11470;20.968;105.834;2023-04-03T18:34:49;24.80;99.90
22607;DHT22;11470;20.968;105.834;2023-04-03T18:39:54;24.80;99.90
22607;DHT22;11470;20.968;105.834;2023-04-03T18:45:00;24.80;99.90
22607;DHT22;11470;20.968;105.834;2023-04-03T18:50:07;24.80;99.90
22607;DHT22;11470;20.968;105.834;2023-04-03T18:55:12;24.80;99.90
22607;DHT22;11470;20.968;105.834;2023-04-03T19:00:20;24.70;99.90
22607;DHT22;11470;20.968;105.834;2023-04-03T19:05:25;24.70;99.90
22607;DHT22;11470;20.968;105.834;2023-04-03T19:10:31;24.70;99.90
22607;DHT22;11470;20.968;105.834;2023-04-03T19:15:37;24.70;99.90
22607;DHT22;11470;20.968;105.834;2023-04-03T19:20:43;24.70;99.90
22607;DHT22;11470;20.968;105.834;2023-04-03T19:26:00;24.70;99.90
22607;DHT22;11470;20.968;105.834;2023-04-03T19:31:15;24.70;99.90
22607;DHT22;11470;20.968;105.834;2023-04-03T19:36:20;24.70;99.90
22607;DHT22;11470;20.968;105.834;2023-04-03T19:41:29;24.70;99.90
22607;DHT22;11470;20.968;105.834;2023-04-03T19:46:35;24.70;99.90
22607;DHT22;11470;20.968;105.834;2023-04-03T19:51:41;24.70;99.90
22607;DHT22;11470;20.968;105.834;2023-04-03T19:56:46;24.70;99.90
22607;DHT22;11470;20.968;105.834;2023-04-03T20:01:52;24.70;99.90
22607;DHT22;11470;20.968;105.834;2023-04-03T20:06:57;24.60;99.90
22607;DHT22;11470;20.968;105.834;2023-04-03T20:12:03;24.70;99.90
22607;DHT22;11470;20.968;105.834;2023-04-03T20:17:09;24.60;99.90
22607;DHT22;11470;20.968;105.834;2023-04-03T20:22:15;24.70;99.90
22607;DHT22;11470;20.968;105.834;2023-04-03T20:27:20;24.60;99.90
22607;DHT22;11470;20.968;105.834;2023-04-03T20:32:26;24.60;99.90
22607;DHT22;11470;20.968;105.834;2023-04-03T20:37:32;24.60;99.90
22607;DHT22;11470;20.968;105.834;2023-04-03T20:42:38;24.60;99.90
22607;DHT22;11470;20.968;105.834;2023-04-03T20:47:43;24.60;99.90
22607;DHT22;11470;20.968;105.834;2023-04-03T20:52:50;24.60;99.90
22607;DHT22;11470;20.968;105.834;2023-04-03T20:57:55;24.50;99.90
22607;DHT22;11470;20.968;105.834;2023-04-03T21:03:05;24.50;99.90
22607;DHT22;11470;20.968;105.834;2023-04-03T21:19:35;24.30;99.90
22607;DHT22;11470;20.968;105.834;2023-04-03T21:24:49;24.40;99.90
22607;DHT22;11470;20.968;105.834;2023-04-03T21:29:54;24.40;99.90
22607;DHT22;11470;20.968;105.834;2023-04-03T21:35:00;24.40;99.90
22607;DHT22;11470;20.968;105.834;2023-04-03T21:40:06;24.40;99.90
22607;DHT22;11470;20.968;105.834;2023-04-03T21:45:12;24.40;99.90
22607;DHT22;11470;20.968;105.834;2023-04-03T21:50:19;24.40;99.90
22607;DHT22;11470;20.968;105.834;2023-04-03T21:55:25;24.40;99.90
22607;DHT22;11470;20.968;105.834;2023-04-03T22:00:30;24.40;99.90
22607;DHT22;11470;20.968;105.834;2023-04-03T22:05:36;24.30;99.90
22607;DHT22;11470;20.968;105.834;2023-04-03T22:10:42;24.30;99.90
22607;DHT22;11470;20.968;105.834;2023-04-03T22:15:48;24.30;99.90
22607;DHT22;11470;20.968;105.834;2023-04-03T22:20:54;24.30;99.90
22607;DHT22;11470;20.968;105.834;2023-04-03T22:26:08;24.30;99.90
22607;DHT22;11470;20.968;105.834;2023-04-03T22:31:14;24.30;99.90
22607;DHT22;11470;20.968;105.834;2023-04-03T22:36:20;24.20;99.90
22607;DHT22;11470;20.968;105.834;2023-04-03T22:41:26;24.30;99.90
22607;DHT22;11470;20.968;105.834;2023-04-03T22:46:31;24.30;99.90
22607;DHT22;11470;20.968;105.834;2023-04-03T22:51:37;24.30;99.90
22607;DHT22;11470;20.968;105.834;2023-04-03T22:56:43;24.30;99.90
22607;DHT22;11470;20.968;105.834;2023-04-03T23:01:49;24.40;99.90
22607;DHT22;11470;20.968;105.834;2023-04-03T23:06:56;24.40;99.90
22607;DHT22;11470;20.968;105.834;2023-04-03T23:12:03;24.40;99.90
22607;DHT22;11470;20.968;105.834;2023-04-03T23:17:09;24.40;99.90
22607;DHT22;11470;20.968;105.834;2023-04-03T23:22:14;24.40;99.90
22607;DHT22;11470;20.968;105.834;2023-04-03T23:27:21;24.40;99.90
22607;DHT22;11470;20.968;105.834;2023-04-03T23:32:26;24.40;99.90
22607;DHT22;11470;20.968;105.834;2023-04-03T23:37:34;24.40;99.90
22607;DHT22;11470;20.968;105.834;2023-04-03T23:42:41;24.40;99.90
22607;DHT22;11470;20.968;105.834;2023-04-03T23:47:46;24.50;99.90
22607;DHT22;11470;20.968;105.834;2023-04-03T23:52:58;24.50;99.90
22607;DHT22;11470;20.968;105.834;2023-04-03T23:58:04;24.60;99.90
